createdAt,value
2017-08-15T00:00:38.472Z,17.28
2017-08-15T00:01:44.420Z,17.28
2017-08-15T00:02:50.574Z,17.19
2017-08-15T00:03:56.681Z,17.15
2017-08-15T00:05:02.766Z,17.09
2017-08-15T00:06:08.640Z,17.00
2017-08-15T00:07:14.750Z,16.96
2017-08-15T00:08:21.167Z,17.04
2017-08-15T00:09:27.300Z,17.10
2017-08-15T00:10:33.373Z,17.13
2017-08-15T00:11:39.439Z,17.13
2017-08-15T00:12:52.636Z,17.14
2017-08-15T00:14:00.208Z,17.10
2017-08-15T00:15:07.203Z,17.07
2017-08-15T00:16:13.304Z,17.04
2017-08-15T00:17:19.484Z,17.03
2017-08-15T00:18:25.575Z,17.02
2017-08-15T00:19:31.718Z,17.01
2017-08-15T00:20:37.815Z,16.93
2017-08-15T00:21:44.881Z,16.92
2017-08-15T00:22:50.998Z,16.84
2017-08-15T00:23:57.068Z,16.73
2017-08-15T00:25:03.148Z,16.63
2017-08-15T00:26:09.205Z,16.57
2017-08-15T00:27:15.322Z,16.48
2017-08-15T00:28:21.437Z,16.41
2017-08-15T00:29:27.534Z,16.36
2017-08-15T00:30:32.928Z,16.31
2017-08-15T00:31:39.036Z,16.31
2017-08-15T00:32:45.130Z,16.29
2017-08-15T00:33:57.718Z,16.27
2017-08-15T00:35:04.337Z,16.24
2017-08-15T00:36:10.437Z,16.19
2017-08-15T00:37:16.572Z,16.18
2017-08-15T00:38:22.741Z,16.15
2017-08-15T00:39:28.900Z,16.12
2017-08-15T00:40:35.002Z,16.07
2017-08-15T00:41:41.094Z,16.02
2017-08-15T00:42:47.216Z,15.97
2017-08-15T00:43:53.145Z,15.94
2017-08-15T00:44:59.242Z,15.94
2017-08-15T00:46:05.320Z,15.98
2017-08-15T00:47:11.413Z,15.95
2017-08-15T00:48:17.559Z,15.92
2017-08-15T00:49:23.693Z,15.91
2017-08-15T00:50:29.829Z,15.96
2017-08-15T00:51:35.361Z,15.95
2017-08-15T00:52:41.501Z,15.96
2017-08-15T00:53:47.429Z,15.98
2017-08-15T00:54:54.957Z,15.99
2017-08-15T00:56:01.021Z,16.03
2017-08-15T00:57:07.994Z,16.11
2017-08-15T00:58:13.721Z,16.08
2017-08-15T00:59:19.803Z,15.97
2017-08-15T01:00:25.247Z,15.91
2017-08-15T01:01:30.438Z,15.88
2017-08-15T01:02:35.663Z,15.86
2017-08-15T01:03:41.139Z,15.85
2017-08-15T01:04:47.009Z,15.88
2017-08-15T01:05:53.143Z,15.92
2017-08-15T01:06:59.250Z,15.92
2017-08-15T01:08:05.357Z,15.92
2017-08-15T01:09:12.261Z,15.88
2017-08-15T01:10:18.493Z,15.85
2017-08-15T01:11:24.574Z,15.84
2017-08-15T01:12:30.639Z,15.85
2017-08-15T01:13:36.710Z,15.86
2017-08-15T01:14:42.820Z,15.95
2017-08-15T01:15:48.973Z,16.18
2017-08-15T01:16:55.140Z,16.36
2017-08-15T01:18:01.268Z,16.47
2017-08-15T01:19:07.200Z,16.50
2017-08-15T01:20:12.893Z,16.54
2017-08-15T01:21:18.812Z,16.59
2017-08-15T01:22:24.549Z,16.56
2017-08-15T01:23:30.470Z,16.45
2017-08-15T01:24:36.574Z,16.33
2017-08-15T01:25:42.771Z,16.29
2017-08-15T01:26:48.693Z,16.30
2017-08-15T01:27:54.871Z,16.31
2017-08-15T01:29:01.060Z,16.31
2017-08-15T01:30:07.143Z,16.31
2017-08-15T01:31:13.246Z,16.44
2017-08-15T01:32:19.369Z,16.55
2017-08-15T01:33:25.442Z,16.56
2017-08-15T01:34:31.509Z,16.52
2017-08-15T01:35:37.572Z,16.51
2017-08-15T01:36:43.680Z,16.65
2017-08-15T01:37:51.801Z,16.78
2017-08-15T01:38:57.698Z,16.83
2017-08-15T01:40:03.811Z,16.88
2017-08-15T01:41:09.686Z,16.87
2017-08-15T01:42:15.837Z,16.85
2017-08-15T01:43:21.965Z,16.80
2017-08-15T01:44:28.092Z,16.81
2017-08-15T01:45:34.190Z,16.83
2017-08-15T01:46:40.046Z,16.85
2017-08-15T01:47:47.031Z,16.93
2017-08-15T01:48:54.009Z,16.96
2017-08-15T01:50:00.111Z,16.92
2017-08-15T01:51:06.228Z,16.90
2017-08-15T01:52:12.345Z,16.82
2017-08-15T01:53:18.488Z,16.75
2017-08-15T01:54:24.572Z,16.69
2017-08-15T01:55:30.677Z,16.70
2017-08-15T01:56:36.811Z,16.71
2017-08-15T01:57:43.004Z,16.76
2017-08-15T01:58:49.119Z,16.79
2017-08-15T01:59:55.294Z,16.86
2017-08-15T02:01:01.385Z,16.98
2017-08-15T02:02:07.312Z,16.99
2017-08-15T02:03:13.436Z,16.99
2017-08-15T02:04:19.531Z,16.95
2017-08-15T02:05:25.646Z,16.84
2017-08-15T02:06:31.729Z,16.78
2017-08-15T02:07:37.819Z,16.80
2017-08-15T02:08:44.022Z,16.85
2017-08-15T02:09:50.077Z,16.84
2017-08-15T02:10:56.219Z,16.92
2017-08-15T02:12:02.310Z,16.93
2017-08-15T02:13:08.389Z,16.87
2017-08-15T02:14:14.505Z,16.79
2017-08-15T02:15:20.551Z,16.72
2017-08-15T02:16:26.616Z,16.70
2017-08-15T02:17:32.718Z,16.70
2017-08-15T02:18:38.999Z,16.80
2017-08-15T02:19:50.246Z,16.89
2017-08-15T02:21:01.473Z,16.92
2017-08-15T02:22:07.562Z,16.72
2017-08-15T02:23:13.659Z,16.67
2017-08-15T02:24:19.746Z,16.64
2017-08-15T02:25:25.817Z,16.59
2017-08-15T02:26:32.000Z,16.59
2017-08-15T02:27:38.108Z,16.62
2017-08-15T02:28:44.189Z,16.73
2017-08-15T02:29:50.241Z,16.73
2017-08-15T02:30:56.409Z,16.67
2017-08-15T02:32:02.503Z,16.58
2017-08-15T02:33:08.610Z,16.54
2017-08-15T02:34:14.701Z,16.54
2017-08-15T02:35:20.829Z,16.69
2017-08-15T02:36:26.901Z,16.70
2017-08-15T02:37:33.071Z,16.60
2017-08-15T02:38:39.351Z,16.54
2017-08-15T02:39:48.354Z,16.47
2017-08-15T02:40:54.113Z,16.47
2017-08-15T02:42:00.177Z,16.39
2017-08-15T02:43:06.235Z,16.33
2017-08-15T02:44:12.313Z,16.31
2017-08-15T02:45:19.033Z,16.31
2017-08-15T02:46:25.096Z,16.44
2017-08-15T02:47:31.233Z,16.58
2017-08-15T02:48:37.334Z,16.47
2017-08-15T02:49:43.391Z,16.39
2017-08-15T02:50:49.482Z,16.33
2017-08-15T02:51:55.691Z,16.28
2017-08-15T02:53:01.764Z,16.22
2017-08-15T02:54:07.826Z,16.28
2017-08-15T02:55:13.668Z,16.30
2017-08-15T02:56:19.802Z,16.25
2017-08-15T02:57:25.842Z,16.20
2017-08-15T02:58:31.946Z,16.13
2017-08-15T02:59:40.190Z,16.14
2017-08-15T03:00:46.324Z,16.17
2017-08-15T03:01:52.439Z,16.22
2017-08-15T03:02:58.828Z,16.41
2017-08-15T03:04:04.983Z,16.34
2017-08-15T03:05:11.060Z,16.19
2017-08-15T03:06:17.149Z,16.31
2017-08-15T03:07:24.045Z,16.49
2017-08-15T03:08:30.125Z,16.54
2017-08-15T03:09:36.221Z,16.60
2017-08-15T03:10:42.320Z,16.59
2017-08-15T03:11:48.438Z,16.48
2017-08-15T03:12:54.582Z,16.42
2017-08-15T03:14:00.689Z,16.38
2017-08-15T03:15:06.757Z,16.27
2017-08-15T03:16:12.857Z,16.29
2017-08-15T03:17:19.053Z,16.22
2017-08-15T03:18:25.161Z,16.27
2017-08-15T03:19:31.329Z,16.18
2017-08-15T03:20:38.320Z,16.03
2017-08-15T03:21:44.933Z,15.99
2017-08-15T03:22:52.219Z,15.91
2017-08-15T03:23:58.314Z,15.85
2017-08-15T03:25:04.853Z,15.79
2017-08-15T03:26:11.338Z,15.77
2017-08-15T03:27:17.481Z,15.75
2017-08-15T03:28:23.535Z,15.71
2017-08-15T03:29:29.677Z,15.86
2017-08-15T03:30:35.784Z,16.02
2017-08-15T03:31:41.923Z,16.10
2017-08-15T03:32:48.015Z,16.11
2017-08-15T03:33:54.113Z,15.99
2017-08-15T03:35:00.191Z,15.84
2017-08-15T03:36:06.289Z,15.74
2017-08-15T03:37:12.390Z,15.74
2017-08-15T03:38:18.527Z,15.80
2017-08-15T03:39:24.623Z,15.79
2017-08-15T03:40:30.755Z,15.78
2017-08-15T03:41:37.178Z,15.77
2017-08-15T03:42:43.293Z,15.79
2017-08-15T03:43:49.437Z,15.70
2017-08-15T03:44:55.404Z,15.64
2017-08-15T03:46:01.470Z,15.59
2017-08-15T03:47:07.557Z,15.55
2017-08-15T03:48:13.744Z,15.60
2017-08-15T03:49:19.845Z,15.51
2017-08-15T03:50:25.941Z,15.45
2017-08-15T03:51:32.040Z,15.41
2017-08-15T03:52:38.162Z,15.54
2017-08-15T03:53:44.285Z,15.57
2017-08-15T03:54:50.362Z,15.58
2017-08-15T03:55:56.435Z,15.50
2017-08-15T03:57:02.574Z,15.39
2017-08-15T03:58:08.670Z,15.32
2017-08-15T03:59:14.778Z,15.30
2017-08-15T04:00:20.872Z,15.24
2017-08-15T04:01:30.143Z,15.24
2017-08-15T04:02:40.538Z,15.27
2017-08-15T04:03:46.712Z,15.39
2017-08-15T04:04:52.947Z,15.58
2017-08-15T04:05:59.070Z,15.50
2017-08-15T04:07:05.161Z,15.33
2017-08-15T04:08:11.209Z,15.30
2017-08-15T04:09:17.334Z,15.32
2017-08-15T04:10:23.511Z,15.37
2017-08-15T04:11:29.563Z,15.53
2017-08-15T04:12:35.678Z,15.57
2017-08-15T04:13:41.791Z,15.54
2017-08-15T04:14:47.877Z,15.44
2017-08-15T04:15:53.967Z,15.33
2017-08-15T04:17:00.044Z,15.27
2017-08-15T04:18:06.124Z,15.24
2017-08-15T04:19:12.236Z,15.23
2017-08-15T04:20:18.354Z,15.26
2017-08-15T04:21:24.450Z,15.22
2017-08-15T04:22:31.326Z,15.18
2017-08-15T04:23:37.795Z,15.15
2017-08-15T04:24:43.910Z,15.13
2017-08-15T04:25:50.043Z,15.24
2017-08-15T04:26:56.219Z,15.30
2017-08-15T04:28:02.347Z,15.24
2017-08-15T04:29:08.457Z,15.19
2017-08-15T04:30:14.573Z,15.15
2017-08-15T04:31:20.571Z,15.16
2017-08-15T04:32:26.697Z,15.35
2017-08-15T04:33:32.819Z,15.45
2017-08-15T04:34:38.955Z,15.22
2017-08-15T04:35:45.097Z,15.22
2017-08-15T04:36:51.187Z,15.24
2017-08-15T04:37:57.308Z,15.30
2017-08-15T04:39:03.652Z,15.24
2017-08-15T04:40:10.131Z,15.22
2017-08-15T04:41:16.804Z,15.41
2017-08-15T04:42:23.099Z,15.41
2017-08-15T04:43:29.825Z,15.39
2017-08-15T04:44:35.888Z,15.39
2017-08-15T04:45:42.048Z,15.44
2017-08-15T04:46:48.131Z,15.37
2017-08-15T04:47:54.194Z,15.36
2017-08-15T04:49:00.288Z,15.42
2017-08-15T04:50:06.377Z,15.61
2017-08-15T04:51:12.443Z,15.51
2017-08-15T04:52:18.548Z,15.50
2017-08-15T04:53:24.624Z,15.51
2017-08-15T04:54:30.692Z,15.52
2017-08-15T04:55:36.786Z,15.54
2017-08-15T04:56:42.930Z,15.54
2017-08-15T04:57:49.012Z,15.56
2017-08-15T04:58:55.178Z,15.59
2017-08-15T05:00:01.285Z,15.60
2017-08-15T05:01:07.215Z,15.61
2017-08-15T05:02:13.337Z,15.65
2017-08-15T05:03:19.253Z,15.83
2017-08-15T05:04:26.778Z,16.00
2017-08-15T05:05:32.887Z,15.88
2017-08-15T05:06:38.956Z,15.93
2017-08-15T05:07:45.077Z,16.02
2017-08-15T05:08:51.156Z,16.04
2017-08-15T05:09:57.265Z,16.08
2017-08-15T05:11:03.345Z,16.06
2017-08-15T05:12:09.449Z,16.13
2017-08-15T05:13:15.591Z,16.16
2017-08-15T05:14:21.658Z,16.34
2017-08-15T05:15:27.740Z,16.38
2017-08-15T05:16:33.810Z,16.38
2017-08-15T05:17:39.904Z,16.42
2017-08-15T05:18:46.020Z,16.48
2017-08-15T05:19:52.102Z,16.57
2017-08-15T05:20:57.979Z,16.64
2017-08-15T05:22:04.092Z,16.66
2017-08-15T05:23:10.209Z,16.78
2017-08-15T05:24:16.331Z,16.99
2017-08-15T05:25:22.492Z,16.97
2017-08-15T05:26:31.364Z,16.95
2017-08-15T05:27:37.439Z,17.00
2017-08-15T05:28:43.565Z,17.13
2017-08-15T05:29:49.655Z,17.06
2017-08-15T05:30:55.815Z,17.04
2017-08-15T05:32:01.893Z,17.19
2017-08-15T05:33:07.982Z,17.20
2017-08-15T05:34:14.086Z,17.22
2017-08-15T05:35:20.153Z,17.27
2017-08-15T05:36:26.227Z,17.26
2017-08-15T05:37:32.302Z,17.28
2017-08-15T05:38:38.387Z,17.49
2017-08-15T05:39:44.493Z,17.46
2017-08-15T05:40:50.574Z,17.50
2017-08-15T05:41:56.765Z,17.46
2017-08-15T05:43:02.874Z,17.46
2017-08-15T05:44:08.972Z,17.51
2017-08-15T05:45:15.053Z,17.55
2017-08-15T05:46:26.702Z,17.57
2017-08-15T05:47:34.786Z,17.62
2017-08-15T05:48:40.847Z,17.67
2017-08-15T05:49:46.941Z,17.68
2017-08-15T05:50:53.039Z,17.69
2017-08-15T05:51:59.110Z,17.78
2017-08-15T05:53:05.175Z,17.82
2017-08-15T05:54:11.264Z,17.82
2017-08-15T05:55:17.389Z,17.92
2017-08-15T05:56:23.448Z,18.19
2017-08-15T05:57:29.550Z,18.35
2017-08-15T05:58:35.642Z,18.29
2017-08-15T05:59:41.745Z,18.33
2017-08-15T06:00:47.849Z,18.25
2017-08-15T06:01:53.910Z,18.35
2017-08-15T06:03:00.027Z,18.46
2017-08-15T06:04:06.065Z,18.47
2017-08-15T06:05:12.137Z,18.54
2017-08-15T06:06:18.260Z,18.80
2017-08-15T06:07:25.436Z,18.86
2017-08-15T06:08:31.493Z,18.89
2017-08-15T06:09:37.602Z,18.76
2017-08-15T06:10:43.734Z,18.78
2017-08-15T06:11:49.617Z,18.77
2017-08-15T06:12:55.783Z,18.72
2017-08-15T06:14:01.886Z,18.75
2017-08-15T06:15:07.964Z,18.72
2017-08-15T06:16:14.095Z,18.65
2017-08-15T06:17:20.168Z,18.59
2017-08-15T06:18:26.250Z,18.57
2017-08-15T06:19:32.348Z,18.64
2017-08-15T06:20:38.463Z,18.79
2017-08-15T06:21:44.549Z,18.83
2017-08-15T06:22:50.603Z,18.84
2017-08-15T06:23:56.709Z,18.87
2017-08-15T06:25:02.780Z,18.93
2017-08-15T06:26:08.864Z,19.00
2017-08-15T06:27:14.990Z,19.03
2017-08-15T06:28:21.106Z,19.02
2017-08-15T06:29:27.220Z,19.10
2017-08-15T06:30:33.301Z,19.13
2017-08-15T06:31:39.410Z,19.22
2017-08-15T06:32:45.492Z,19.32
2017-08-15T06:33:51.552Z,19.36
2017-08-15T06:34:57.647Z,19.41
2017-08-15T06:36:03.703Z,19.40
2017-08-15T06:37:09.806Z,19.44
2017-08-15T06:38:15.877Z,19.49
2017-08-15T06:39:21.925Z,19.57
2017-08-15T06:40:28.000Z,19.65
2017-08-15T06:41:34.062Z,19.60
2017-08-15T06:42:40.159Z,19.60
2017-08-15T06:43:46.251Z,19.73
2017-08-15T06:44:52.326Z,19.81
2017-08-15T06:45:58.062Z,19.80
2017-08-15T06:47:04.161Z,19.87
2017-08-15T06:48:10.580Z,19.88
2017-08-15T06:49:16.712Z,19.92
2017-08-15T06:50:22.889Z,19.81
2017-08-15T06:51:28.953Z,19.79
2017-08-15T06:52:35.007Z,19.89
2017-08-15T06:53:41.126Z,19.91
2017-08-15T06:54:47.156Z,20.00
2017-08-15T06:55:53.043Z,20.11
2017-08-15T06:56:59.139Z,20.10
2017-08-15T06:58:05.245Z,20.23
2017-08-15T06:59:11.324Z,20.21
2017-08-15T07:00:17.401Z,20.09
2017-08-15T07:01:23.538Z,20.17
2017-08-15T07:02:29.669Z,20.18
2017-08-15T07:03:35.791Z,20.16
2017-08-15T07:04:41.867Z,20.14
2017-08-15T07:05:47.903Z,20.20
2017-08-15T07:06:53.962Z,20.27
2017-08-15T07:08:00.016Z,20.26
2017-08-15T07:09:09.626Z,20.23
2017-08-15T07:10:25.880Z,20.26
2017-08-15T07:11:31.955Z,20.22
2017-08-15T07:12:38.053Z,20.28
2017-08-15T07:13:44.153Z,20.46
2017-08-15T07:14:50.207Z,20.50
2017-08-15T07:15:56.373Z,20.65
2017-08-15T07:17:02.409Z,20.68
2017-08-15T07:18:08.459Z,20.64
2017-08-15T07:19:14.566Z,20.86
2017-08-15T07:20:20.641Z,20.89
2017-08-15T07:21:26.531Z,21.14
2017-08-15T07:22:32.620Z,21.19
2017-08-15T07:23:38.724Z,21.18
2017-08-15T07:24:44.829Z,21.16
2017-08-15T07:25:50.875Z,21.31
2017-08-15T07:26:56.954Z,21.39
2017-08-15T07:28:02.997Z,21.50
2017-08-15T07:29:09.029Z,21.50
2017-08-15T07:30:16.899Z,21.57
2017-08-15T07:31:23.025Z,21.58
2017-08-15T07:32:29.157Z,21.64
2017-08-15T07:33:35.189Z,21.67
2017-08-15T07:34:41.294Z,21.73
2017-08-15T07:35:47.404Z,21.69
2017-08-15T07:36:53.487Z,21.79
2017-08-15T07:37:59.587Z,21.85
2017-08-15T07:39:04.916Z,21.97
2017-08-15T07:40:10.993Z,22.00
2017-08-15T07:41:17.079Z,22.11
2017-08-15T07:42:23.233Z,22.19
2017-08-15T07:43:29.288Z,22.23
2017-08-15T07:44:35.321Z,22.15
2017-08-15T07:45:41.451Z,22.18
2017-08-15T07:46:47.531Z,22.03
2017-08-15T07:47:53.601Z,21.86
2017-08-15T07:48:59.675Z,21.92
2017-08-15T07:50:05.803Z,21.98
2017-08-15T07:51:14.218Z,22.14
2017-08-15T07:52:20.319Z,22.11
2017-08-15T07:53:26.405Z,22.15
2017-08-15T07:54:32.507Z,22.12
2017-08-15T07:55:38.595Z,22.29
2017-08-15T07:56:44.701Z,22.41
2017-08-15T07:57:50.786Z,22.54
2017-08-15T07:58:56.855Z,22.65
2017-08-15T08:00:02.900Z,22.70
2017-08-15T08:01:08.802Z,22.73
2017-08-15T08:02:14.882Z,22.68
2017-08-15T08:03:20.933Z,22.80
2017-08-15T08:04:26.994Z,22.91
2017-08-15T08:05:33.074Z,22.98
2017-08-15T08:06:39.251Z,23.11
2017-08-15T08:07:45.388Z,23.15
2017-08-15T08:08:51.530Z,23.04
2017-08-15T08:09:57.605Z,23.06
2017-08-15T08:11:03.689Z,23.21
2017-08-15T08:12:10.012Z,23.30
2017-08-15T08:13:16.361Z,23.41
2017-08-15T08:14:22.494Z,23.53
2017-08-15T08:15:28.550Z,23.44
2017-08-15T08:16:34.706Z,23.55
2017-08-15T08:17:40.837Z,23.51
2017-08-15T08:18:46.911Z,23.58
2017-08-15T08:19:52.989Z,23.32
2017-08-15T08:20:59.091Z,23.47
2017-08-15T08:22:05.199Z,23.49
2017-08-15T08:23:11.120Z,23.38
2017-08-15T08:24:17.214Z,23.62
2017-08-15T08:25:23.321Z,23.66
2017-08-15T08:26:30.049Z,23.70
2017-08-15T08:27:36.113Z,23.78
2017-08-15T08:28:42.219Z,23.77
2017-08-15T08:29:48.315Z,23.74
2017-08-15T08:30:54.370Z,23.75
2017-08-15T08:32:00.472Z,23.70
2017-08-15T08:33:10.385Z,23.69
2017-08-15T08:34:19.790Z,23.68
2017-08-15T08:35:25.885Z,23.74
2017-08-15T08:36:31.997Z,23.91
2017-08-15T08:37:38.058Z,24.00
2017-08-15T08:38:44.172Z,24.00
2017-08-15T08:39:50.234Z,23.86
2017-08-15T08:40:56.409Z,23.91
2017-08-15T08:42:02.571Z,23.98
2017-08-15T08:43:08.689Z,24.21
2017-08-15T08:44:14.828Z,24.37
2017-08-15T08:45:20.923Z,24.36
2017-08-15T08:46:27.032Z,24.45
2017-08-15T08:47:33.113Z,24.42
2017-08-15T08:48:39.206Z,24.43
2017-08-15T08:49:45.296Z,24.31
2017-08-15T08:50:51.388Z,24.32
2017-08-15T08:51:57.514Z,24.26
2017-08-15T08:53:03.576Z,24.23
2017-08-15T08:54:09.658Z,24.37
2017-08-15T08:55:15.741Z,24.29
2017-08-15T08:56:21.823Z,24.34
2017-08-15T08:57:27.892Z,24.37
2017-08-15T08:58:33.994Z,24.52
2017-08-15T08:59:40.045Z,24.75
2017-08-15T09:00:45.933Z,24.95
2017-08-15T09:01:52.010Z,25.10
2017-08-15T09:02:58.072Z,25.20
2017-08-15T09:04:03.994Z,25.18
2017-08-15T09:05:10.105Z,25.15
2017-08-15T09:06:16.017Z,25.07
2017-08-15T09:07:22.077Z,25.07
2017-08-15T09:08:28.149Z,24.99
2017-08-15T09:09:34.057Z,24.90
2017-08-15T09:10:39.965Z,24.63
2017-08-15T09:11:46.049Z,24.52
2017-08-15T09:12:52.143Z,24.60
2017-08-15T09:13:58.060Z,24.67
2017-08-15T09:15:06.120Z,24.64
2017-08-15T09:16:13.307Z,24.75
2017-08-15T09:17:19.412Z,24.71
2017-08-15T09:18:25.461Z,24.78
2017-08-15T09:19:31.372Z,24.91
2017-08-15T09:20:37.272Z,25.07
2017-08-15T09:21:43.430Z,25.08
2017-08-15T09:22:49.481Z,25.29
2017-08-15T09:23:55.466Z,25.40
2017-08-15T09:25:01.551Z,25.44
2017-08-15T09:26:07.481Z,25.56
2017-08-15T09:27:13.566Z,25.62
2017-08-15T09:28:19.492Z,25.81
2017-08-15T09:29:25.405Z,25.86
2017-08-15T09:30:31.298Z,25.83
2017-08-15T09:31:37.226Z,25.84
2017-08-15T09:32:43.229Z,25.82
2017-08-15T09:33:49.301Z,25.94
2017-08-15T09:34:55.258Z,25.91
2017-08-15T09:36:01.172Z,25.94
2017-08-15T09:37:07.024Z,26.16
2017-08-15T09:38:13.075Z,26.09
2017-08-15T09:39:19.221Z,26.14
2017-08-15T09:40:26.459Z,26.26
2017-08-15T09:41:35.153Z,26.22
2017-08-15T09:42:42.773Z,26.08
2017-08-15T09:43:48.814Z,26.31
2017-08-15T09:44:54.886Z,26.43
2017-08-15T09:46:00.975Z,26.55
2017-08-15T09:47:06.944Z,26.54
2017-08-15T09:48:13.110Z,26.49
2017-08-15T09:49:19.042Z,26.34
2017-08-15T09:50:25.108Z,26.26
2017-08-15T09:51:31.146Z,26.41
2017-08-15T09:52:37.297Z,26.45
2017-08-15T09:53:43.398Z,26.54
2017-08-15T09:54:49.469Z,26.66
2017-08-15T09:55:55.592Z,26.79
2017-08-15T09:57:02.558Z,26.62
2017-08-15T09:58:14.116Z,26.62
2017-08-15T09:59:20.389Z,26.72
2017-08-15T10:00:26.436Z,26.83
2017-08-15T10:01:32.501Z,26.79
2017-08-15T10:02:38.589Z,26.83
2017-08-15T10:03:44.679Z,26.91
2017-08-15T10:04:50.728Z,26.91
2017-08-15T10:05:56.788Z,26.97
2017-08-15T10:07:02.847Z,26.95
2017-08-15T10:08:08.993Z,26.89
2017-08-15T10:09:15.070Z,26.91
2017-08-15T10:10:21.138Z,27.09
2017-08-15T10:11:27.215Z,27.22
2017-08-15T10:12:33.160Z,27.15
2017-08-15T10:13:39.062Z,27.18
2017-08-15T10:14:45.157Z,27.20
2017-08-15T10:15:51.210Z,27.23
2017-08-15T10:17:07.414Z,27.29
2017-08-15T10:23:20.306Z,27.59
2017-08-15T10:24:26.766Z,27.58
2017-08-15T10:25:32.529Z,27.67
2017-08-15T10:26:38.593Z,27.67
2017-08-15T10:27:44.721Z,27.73
2017-08-15T10:28:50.786Z,27.83
2017-08-15T10:29:57.005Z,27.85
2017-08-15T10:31:03.090Z,27.90
2017-08-15T10:32:09.145Z,27.99
2017-08-15T10:33:15.222Z,27.98
2017-08-15T10:34:21.083Z,27.99
2017-08-15T10:35:27.126Z,28.05
2017-08-15T10:36:33.224Z,28.08
2017-08-15T10:37:39.294Z,28.05
2017-08-15T10:38:48.177Z,28.00
2017-08-15T10:40:01.988Z,28.14
2017-08-15T10:41:07.765Z,28.26
2017-08-15T10:42:13.814Z,28.29
2017-08-15T10:43:19.698Z,28.18
2017-08-15T10:44:25.440Z,28.21
2017-08-15T10:45:31.207Z,28.18
2017-08-15T10:46:37.267Z,28.21
2017-08-15T10:47:43.103Z,28.24
2017-08-15T10:48:49.176Z,28.31
2017-08-15T10:49:55.273Z,28.29
2017-08-15T10:51:01.377Z,28.34
2017-08-15T10:52:07.412Z,28.35
2017-08-15T10:53:13.191Z,28.44
2017-08-15T10:54:18.772Z,28.46
2017-08-15T10:55:24.356Z,28.45
2017-08-15T10:56:30.132Z,28.46
2017-08-15T10:57:35.708Z,28.43
2017-08-15T10:58:41.318Z,28.37
2017-08-15T10:59:53.153Z,28.44
2017-08-15T11:01:01.138Z,28.62
2017-08-15T11:02:06.903Z,28.74
2017-08-15T11:03:12.645Z,28.82
2017-08-15T11:04:18.444Z,28.72
2017-08-15T11:05:24.232Z,28.85
2017-08-15T11:06:30.005Z,28.80
2017-08-15T11:07:35.769Z,28.56
2017-08-15T11:08:41.542Z,28.65
2017-08-15T11:09:47.321Z,28.80
2017-08-15T11:10:53.363Z,28.84
2017-08-15T11:11:59.144Z,28.98
2017-08-15T11:13:04.890Z,28.98
2017-08-15T11:14:10.710Z,29.05
2017-08-15T11:15:16.476Z,29.06
2017-08-15T11:16:22.281Z,28.99
2017-08-15T11:17:28.032Z,29.08
2017-08-15T11:18:33.773Z,29.09
2017-08-15T11:19:39.342Z,29.04
2017-08-15T11:20:45.077Z,29.06
2017-08-15T11:21:51.169Z,29.01
2017-08-15T11:22:56.922Z,28.97
2017-08-15T11:24:02.715Z,29.01
2017-08-15T11:25:08.517Z,28.94
2017-08-15T11:26:14.285Z,29.03
2017-08-15T11:27:20.367Z,28.91
2017-08-15T11:28:26.103Z,29.00
2017-08-15T11:29:32.149Z,28.83
2017-08-15T11:30:37.931Z,28.76
2017-08-15T11:31:43.686Z,28.98
2017-08-15T11:32:49.787Z,29.09
2017-08-15T11:33:55.605Z,29.20
2017-08-15T11:35:01.347Z,29.24
2017-08-15T11:36:07.102Z,29.29
2017-08-15T11:37:12.879Z,29.36
2017-08-15T11:38:18.671Z,29.24
2017-08-15T11:39:24.514Z,29.15
2017-08-15T11:40:30.273Z,29.20
2017-08-15T11:41:36.014Z,29.30
2017-08-15T11:42:42.137Z,29.44
2017-08-15T11:43:47.956Z,29.54
2017-08-15T11:44:53.758Z,29.67
2017-08-15T11:45:59.504Z,29.78
2017-08-15T11:47:05.280Z,29.84
2017-08-15T11:48:11.091Z,29.90
2017-08-15T11:49:17.127Z,29.86
2017-08-15T11:50:23.227Z,29.80
2017-08-15T11:51:29.017Z,29.66
2017-08-15T11:52:34.767Z,29.69
2017-08-15T11:53:40.606Z,29.86
2017-08-15T11:54:46.369Z,30.00
2017-08-15T11:55:52.129Z,29.94
2017-08-15T11:56:57.909Z,29.90
2017-08-15T11:58:03.672Z,29.89
2017-08-15T11:59:09.449Z,29.77
2017-08-15T12:00:15.192Z,29.82
2017-08-15T12:01:20.922Z,29.91
2017-08-15T12:02:26.671Z,29.89
2017-08-15T12:03:32.442Z,29.86
2017-08-15T12:04:38.230Z,29.89
2017-08-15T12:05:44.029Z,29.84
2017-08-15T12:06:49.595Z,29.94
2017-08-15T12:07:55.239Z,30.05
2017-08-15T12:09:01.013Z,30.19
2017-08-15T12:10:06.558Z,30.25
2017-08-15T12:11:12.609Z,30.13
2017-08-15T12:12:18.409Z,29.76
2017-08-15T12:13:24.162Z,29.75
2017-08-15T12:14:29.978Z,29.83
2017-08-15T12:15:35.738Z,29.97
2017-08-15T12:16:41.498Z,30.00
2017-08-15T12:17:47.290Z,30.04
2017-08-15T12:18:53.073Z,30.13
2017-08-15T12:19:58.900Z,30.06
2017-08-15T12:21:04.669Z,30.23
2017-08-15T12:22:10.433Z,30.41
2017-08-15T12:23:16.195Z,30.68
2017-08-15T12:24:21.939Z,30.72
2017-08-15T12:25:27.558Z,30.84
2017-08-15T12:26:33.175Z,30.66
2017-08-15T12:27:38.929Z,30.54
2017-08-15T12:28:44.706Z,30.71
2017-08-15T12:29:50.489Z,30.76
2017-08-15T12:30:56.359Z,30.82
2017-08-15T12:32:02.111Z,30.67
2017-08-15T12:33:07.908Z,30.77
2017-08-15T12:34:13.662Z,30.70
2017-08-15T12:35:19.529Z,30.43
2017-08-15T12:36:25.292Z,30.55
2017-08-15T12:37:31.063Z,30.50
2017-08-15T12:38:36.807Z,30.70
2017-08-15T12:39:42.581Z,30.73
2017-08-15T12:40:48.383Z,30.76
2017-08-15T12:41:54.132Z,30.84
2017-08-15T12:42:59.885Z,31.06
2017-08-15T12:44:05.626Z,31.00
2017-08-15T12:45:11.383Z,30.85
2017-08-15T12:46:17.182Z,30.63
2017-08-15T12:47:22.993Z,30.51
2017-08-15T12:48:28.782Z,30.31
2017-08-15T12:49:34.573Z,30.66
2017-08-15T12:50:40.595Z,30.57
2017-08-15T12:51:46.458Z,30.71
2017-08-15T12:52:52.219Z,30.90
2017-08-15T12:53:58.010Z,31.05
2017-08-15T12:55:03.763Z,31.13
2017-08-15T12:56:09.510Z,31.01
2017-08-15T12:57:15.283Z,30.93
2017-08-15T12:58:21.061Z,30.18
2017-08-15T12:59:26.834Z,30.34
2017-08-15T13:00:32.661Z,30.32
2017-08-15T13:01:38.522Z,30.42
2017-08-15T13:02:44.285Z,30.02
2017-08-15T13:03:49.867Z,30.32
2017-08-15T13:04:55.523Z,30.69
2017-08-15T13:06:01.315Z,30.61
2017-08-15T13:07:10.289Z,30.29
2017-08-15T13:08:17.899Z,30.49
2017-08-15T13:09:23.680Z,30.76
2017-08-15T13:10:29.449Z,30.69
2017-08-15T13:11:35.192Z,30.48
2017-08-15T13:12:40.994Z,30.73
2017-08-15T13:13:46.795Z,30.89
2017-08-15T13:14:52.628Z,30.57
2017-08-15T13:15:58.402Z,30.84
2017-08-15T13:17:04.170Z,30.96
2017-08-15T13:18:09.941Z,31.06
2017-08-15T13:19:15.702Z,31.13
2017-08-15T13:20:21.465Z,30.71
2017-08-15T13:21:27.060Z,31.03
2017-08-15T13:22:32.821Z,31.14
2017-08-15T13:23:38.410Z,30.71
2017-08-15T13:24:44.253Z,30.37
2017-08-15T13:25:49.884Z,30.67
2017-08-15T13:26:55.583Z,31.00
2017-08-15T13:28:01.282Z,30.99
2017-08-15T13:29:06.876Z,31.11
2017-08-15T13:30:12.502Z,31.14
2017-08-15T13:31:18.282Z,30.85
2017-08-15T13:32:23.966Z,30.54
2017-08-15T13:33:29.643Z,30.67
2017-08-15T13:34:35.222Z,31.06
2017-08-15T13:35:40.830Z,31.43
2017-08-15T13:36:46.409Z,31.55
2017-08-15T13:37:52.031Z,31.74
2017-08-15T13:38:57.693Z,32.03
2017-08-15T13:40:03.557Z,32.19
2017-08-15T13:41:09.177Z,31.71
2017-08-15T13:42:14.975Z,31.61
2017-08-15T13:43:20.793Z,31.40
2017-08-15T13:44:26.619Z,31.66
2017-08-15T13:45:32.198Z,30.83
2017-08-15T13:46:37.775Z,30.87
2017-08-15T13:47:43.369Z,31.30
2017-08-15T13:48:49.003Z,31.62
2017-08-15T13:49:54.633Z,31.96
2017-08-15T13:51:00.493Z,32.13
2017-08-15T13:52:06.057Z,32.28
2017-08-15T13:53:11.599Z,32.26
2017-08-15T13:54:17.157Z,32.24
2017-08-15T13:55:22.984Z,32.36
2017-08-15T13:56:28.802Z,32.15
2017-08-15T13:57:34.383Z,31.87
2017-08-15T13:58:39.977Z,31.69
2017-08-15T13:59:45.637Z,31.48
2017-08-15T14:00:51.286Z,31.62
2017-08-15T14:01:56.961Z,31.48
2017-08-15T14:03:02.642Z,31.43
2017-08-15T14:04:08.262Z,31.60
2017-08-15T14:05:13.897Z,31.68
2017-08-15T14:06:19.856Z,31.72
2017-08-15T14:07:25.494Z,31.81
2017-08-15T14:08:31.058Z,32.04
2017-08-15T14:09:36.660Z,31.89
2017-08-15T14:10:42.402Z,31.99
2017-08-15T14:11:48.026Z,32.03
2017-08-15T14:12:53.620Z,32.08
2017-08-15T14:13:59.191Z,32.10
2017-08-15T14:15:04.818Z,32.18
2017-08-15T14:16:10.504Z,32.36
2017-08-15T14:17:16.153Z,32.18